Time;durP1;ratioP1;P1;durP2;ratioP2;P2;SDS_P1;SDS_P2;PMS_P1;PMS_P2;Temp;Humidity;BMP_temperature;BMP_pressure;BME280_temperature;BME280_humidity;BME280_pressure;Samples;Min_cycle;Max_cycle;Signal;HPM_P1;HPM_P2
2023/09/16 00:02:12;;;;;;;4.57;4.20;;;;;;;16.91;100.00;99946.78;5028819;28;20220;-78
2023/09/16 00:04:38;;;;;;;5.97;5.43;;;;;;;16.83;100.00;99949.19;5042887;28;20174;-78
2023/09/16 00:07:03;;;;;;;5.83;4.93;;;;;;;16.73;100.00;99952.56;5033341;28;20209;-78
2023/09/16 00:09:29;;;;;;;5.10;4.60;;;;;;;16.62;100.00;99947.41;5042376;28;20189;-79
2023/09/16 00:11:54;;;;;;;5.37;4.80;;;;;;;16.52;100.00;99943.94;5027634;28;20225;-80
2023/09/16 00:14:22;;;;;;;5.10;4.60;;;;;;;16.46;100.00;99947.88;5042492;28;20185;-78
2023/09/16 00:16:49;;;;;;;5.93;5.43;;;;;;;16.32;100.00;99936.00;5049411;28;20186;-79
2023/09/16 00:19:15;;;;;;;5.57;4.47;;;;;;;16.25;100.00;99927.09;5043153;28;20219;-80
2023/09/16 00:21:41;;;;;;;5.27;4.87;;;;;;;16.15;100.00;99927.00;5030005;28;20302;-79
2023/09/16 00:24:09;;;;;;;5.17;4.77;;;;;;;16.14;100.00;99935.72;5051798;28;20185;-79
2023/09/16 00:26:35;;;;;;;6.40;5.47;;;;;;;16.05;100.00;99941.66;5052371;28;20212;-79
2023/09/16 00:29:00;;;;;;;5.73;4.97;;;;;;;15.95;100.00;99938.97;5041847;28;20217;-79
2023/09/16 00:31:27;;;;;;;6.53;5.87;;;;;;;15.89;100.00;99944.63;5039501;28;20245;-78
2023/09/16 00:33:52;;;;;;;6.07;5.57;;;;;;;15.88;100.00;99935.22;5043788;28;20178;-79
2023/09/16 00:36:18;;;;;;;9.00;5.63;;;;;;;15.75;100.00;99928.38;5035805;28;20212;-78
2023/09/16 00:38:43;;;;;;;7.00;5.40;;;;;;;15.73;100.00;99930.28;5043813;28;20213;-78
2023/09/16 00:41:11;;;;;;;5.90;5.50;;;;;;;15.64;100.00;99921.44;5027306;28;20714;-78
2023/09/16 00:43:37;;;;;;;5.87;5.23;;;;;;;15.66;100.00;99929.09;5051695;28;20267;-82
2023/09/16 00:46:02;;;;;;;5.53;5.03;;;;;;;15.59;100.00;99922.75;5070456;28;20267;-78
2023/09/16 00:48:28;;;;;;;7.47;5.07;;;;;;;15.60;100.00;99930.44;5050759;28;20637;-78
2023/09/16 00:50:53;;;;;;;6.07;5.57;;;;;;;15.56;100.00;99923.81;5037225;28;20221;-78
2023/09/16 00:53:19;;;;;;;6.00;4.93;;;;;;;15.63;100.00;99931.94;5040974;28;20185;-79
2023/09/16 00:55:47;;;;;;;5.83;5.33;;;;;;;15.52;100.00;99932.78;5034279;28;20190;-79
2023/09/16 00:58:13;;;;;;;5.63;5.13;;;;;;;15.52;100.00;99937.13;5051869;28;20552;-79
2023/09/16 01:00:39;;;;;;;6.30;5.30;;;;;;;15.48;100.00;99927.00;5025239;28;20701;-79
2023/09/16 01:03:06;;;;;;;6.10;5.43;;;;;;;15.53;100.00;99921.47;5021020;28;20336;-79
2023/09/16 01:05:33;;;;;;;7.43;5.33;;;;;;;15.49;100.00;99917.44;5030807;28;20736;-79
2023/09/16 01:07:58;;;;;;;5.63;5.00;;;;;;;15.47;100.00;99925.34;5040262;28;20641;-79
2023/09/16 01:10:23;;;;;;;5.87;5.27;;;;;;;15.37;100.00;99918.41;5038407;28;20247;-79
2023/09/16 01:12:52;;;;;;;6.03;5.60;;;;;;;15.41;100.00;99925.84;5049628;28;20182;-79
2023/09/16 01:15:20;;;;;;;5.87;5.20;;;;;;;15.42;100.00;99916.31;5050652;28;20181;-80
2023/09/16 01:18:13;;;;;;;6.10;5.10;;;;;;;15.31;100.00;99924.91;5051506;28;20260;-80
2023/09/16 01:20:39;;;;;;;6.17;5.40;;;;;;;15.29;100.00;99926.78;5038243;28;20248;-80
2023/09/16 01:23:05;;;;;;;6.30;5.70;;;;;;;15.26;100.00;99922.66;5033368;28;20202;-79
2023/09/16 01:25:31;;;;;;;5.63;5.07;;;;;;;15.15;100.00;99931.25;5027257;28;20554;-79
2023/09/16 01:27:56;;;;;;;6.10;5.60;;;;;;;15.12;100.00;99931.50;5022999;28;20212;-78
2023/09/16 01:30:25;;;;;;;6.17;5.60;;;;;;;15.16;100.00;99926.91;5025170;28;20646;-80
2023/09/16 01:33:09;;;;;;;5.97;5.37;;;;;;;15.09;100.00;99923.94;5049841;28;20547;-80
2023/09/16 01:35:38;;;;;;;5.70;4.97;;;;;;;15.13;100.00;99925.38;5055482;28;20185;-78
2023/09/16 01:38:06;;;;;;;5.90;5.40;;;;;;;15.12;100.00;99928.91;5054188;28;20174;-78
2023/09/16 01:40:33;;;;;;;6.80;6.20;;;;;;;15.10;100.00;99923.00;5047089;28;20563;-79
2023/09/16 01:42:59;;;;;;;6.33;5.73;;;;;;;15.08;100.00;99932.69;5045328;28;20210;-78
2023/09/16 01:45:24;;;;;;;7.63;7.00;;;;;;;15.09;100.00;99923.94;5026787;28;20199;-79
2023/09/16 01:47:50;;;;;;;6.03;5.53;;;;;;;15.10;100.00;99925.59;5032255;28;20182;-78
2023/09/16 01:50:15;;;;;;;7.00;6.40;;;;;;;15.14;100.00;99929.63;5026138;28;20213;-78
2023/09/16 01:52:40;;;;;;;7.37;5.77;;;;;;;15.13;100.00;99927.97;5038238;28;20223;-79
2023/09/16 01:55:06;;;;;;;6.90;5.90;;;;;;;15.12;100.00;99920.31;5055500;28;20185;-79
2023/09/16 01:57:31;;;;;;;6.00;5.50;;;;;;;15.05;100.00;99926.91;5052981;28;20173;-79
2023/09/16 01:59:57;;;;;;;6.47;5.50;;;;;;;15.03;100.00;99923.59;5053496;28;20534;-79
2023/09/16 02:02:22;;;;;;;11.70;6.10;;;;;;;14.97;100.00;99930.91;5059479;28;20226;-79
2023/09/16 02:04:47;;;;;;;6.07;5.50;;;;;;;14.97;100.00;99933.50;5053281;28;20555;-79
2023/09/16 02:07:12;;;;;;;6.43;5.83;;;;;;;14.95;100.00;99930.19;5051662;28;20672;-78
2023/09/16 02:09:38;;;;;;;6.10;5.60;;;;;;;14.84;100.00;99933.56;5052350;28;20724;-80
2023/09/16 02:12:04;;;;;;;5.47;5.07;;;;;;;14.76;100.00;99938.53;5029306;28;20214;-79
2023/09/16 02:14:29;;;;;;;5.50;5.10;;;;;;;14.80;100.00;99937.34;5040007;28;20232;-79
2023/09/16 02:16:54;;;;;;;7.17;5.87;;;;;;;14.90;100.00;99941.84;5039537;28;20230;-79
2023/09/16 02:19:20;;;;;;;6.50;6.00;;;;;;;14.89;100.00;99938.41;5054866;28;20555;-80
2023/09/16 02:21:45;;;;;;;6.37;5.77;;;;;;;14.90;100.00;99939.25;5044490;28;20228;-80
2023/09/16 02:24:10;;;;;;;7.97;5.63;;;;;;;14.87;100.00;99942.88;5059353;28;20190;-79
2023/09/16 02:26:35;;;;;;;6.77;6.13;;;;;;;14.82;100.00;99939.81;5061952;28;20240;-79
2023/09/16 02:29:01;;;;;;;7.37;6.57;;;;;;;14.79;100.00;99938.28;5034612;28;20196;-79
2023/09/16 02:31:26;;;;;;;6.57;5.63;;;;;;;14.81;100.00;99945.94;5036246;28;20228;-78
2023/09/16 02:33:58;;;;;;;6.27;5.70;;;;;;;14.73;100.00;99938.75;5040039;28;20594;-78
2023/09/16 02:36:24;;;;;;;7.30;5.73;;;;;;;14.71;100.00;99950.16;5035383;28;20616;-78
2023/09/16 02:38:51;;;;;;;5.67;5.20;;;;;;;14.54;100.00;99949.63;5046639;28;20189;-79
2023/09/16 02:41:17;;;;;;;8.37;5.40;;;;;;;14.52;100.00;99951.47;5046346;28;20231;-79
2023/09/16 02:43:43;;;;;;;6.13;5.63;;;;;;;14.57;100.00;99949.38;5063588;28;20188;-79
2023/09/16 02:46:09;;;;;;;6.23;5.37;;;;;;;14.59;100.00;99952.69;5067783;28;20544;-79
2023/09/16 02:48:34;;;;;;;6.00;5.50;;;;;;;14.59;100.00;99944.91;5064586;28;20181;-79
2023/09/16 02:51:00;;;;;;;6.57;5.97;;;;;;;14.59;100.00;99954.47;5073695;28;20631;-79
2023/09/16 02:53:25;;;;;;;6.57;5.90;;;;;;;14.51;100.00;99948.09;5063230;28;20181;-79
2023/09/16 02:55:50;;;;;;;6.80;6.07;;;;;;;14.45;100.00;99948.53;5058044;28;20640;-78
2023/09/16 02:58:16;;;;;;;5.97;5.47;;;;;;;14.42;100.00;99956.50;5062068;28;20189;-79
2023/09/16 03:00:44;;;;;;;7.13;6.00;;;;;;;14.38;100.00;99949.09;5057549;28;20250;-78
2023/09/16 03:03:09;;;;;;;5.90;5.40;;;;;;;14.40;100.00;99947.19;5060719;28;20215;-78
2023/09/16 03:05:34;;;;;;;6.67;6.10;;;;;;;14.40;100.00;99944.63;5066471;28;20283;-78
2023/09/16 03:08:00;;;;;;;6.63;6.03;;;;;;;14.41;100.00;99941.91;5063493;28;20576;-78
2023/09/16 03:10:25;;;;;;;7.43;6.30;;;;;;;14.42;100.00;99940.16;5059014;28;20232;-80
2023/09/16 03:12:50;;;;;;;9.27;6.17;;;;;;;14.44;100.00;99936.53;5057642;28;20204;-78
2023/09/16 03:15:15;;;;;;;6.10;5.60;;;;;;;14.40;100.00;99934.25;5070920;28;20279;-78
2023/09/16 03:17:41;;;;;;;6.93;6.03;;;;;;;14.31;100.00;99934.03;5059820;28;20185;-78
2023/09/16 03:20:07;;;;;;;6.37;5.77;;;;;;;14.34;100.00;99930.38;5054472;28;20180;-78
2023/09/16 03:22:32;;;;;;;6.10;5.50;;;;;;;14.30;100.00;99927.19;5057128;28;20313;-79
2023/09/16 03:24:58;;;;;;;6.87;6.10;;;;;;;14.30;100.00;99934.09;5065341;28;20259;-79
2023/09/16 03:27:23;;;;;;;7.33;6.17;;;;;;;14.28;100.00;99923.06;5060762;28;20192;-78
2023/09/16 03:29:48;;;;;;;5.57;5.13;;;;;;;14.23;100.00;99931.16;5063788;28;20177;-79
2023/09/16 03:32:14;;;;;;;6.63;5.93;;;;;;;14.24;100.00;99944.91;5023249;28;20224;-78
2023/09/16 03:34:39;;;;;;;6.23;5.60;;;;;;;14.15;100.00;99934.31;5067932;28;20181;-79
2023/09/16 03:37:04;;;;;;;6.60;6.00;;;;;;;14.14;100.00;99934.38;5070662;28;20193;-79
2023/09/16 03:39:29;;;;;;;6.90;6.20;;;;;;;14.14;100.00;99926.63;5056331;28;20185;-79
2023/09/16 03:41:55;;;;;;;6.97;6.20;;;;;;;14.12;100.00;99925.94;5060753;28;20630;-80
2023/09/16 03:44:20;;;;;;;6.47;5.67;;;;;;;14.08;100.00;99929.66;5054207;28;20177;-79
2023/09/16 03:46:45;;;;;;;6.60;6.00;;;;;;;14.05;100.00;99930.72;5063092;28;20189;-79
2023/09/16 03:49:11;;;;;;;7.63;5.87;;;;;;;14.03;100.00;99935.19;5040033;28;20254;-78
2023/09/16 03:51:38;;;;;;;6.27;5.83;;;;;;;14.04;100.00;99929.91;5035279;28;20229;-82
2023/09/16 03:54:04;;;;;;;6.50;5.90;;;;;;;14.13;100.00;99925.00;5061400;28;20170;-79
2023/09/16 03:56:30;;;;;;;7.33;6.60;;;;;;;14.11;100.00;99927.69;5061177;28;20724;-79
2023/09/16 03:58:55;;;;;;;7.27;5.77;;;;;;;14.02;100.00;99934.34;5054237;28;20654;-79
2023/09/16 04:01:20;;;;;;;6.33;5.73;;;;;;;13.99;100.00;99928.56;5044509;28;20232;-81
2023/09/16 04:03:46;;;;;;;8.90;6.03;;;;;;;13.96;100.00;99933.97;5059693;28;20181;-79
2023/09/16 04:06:11;;;;;;;7.47;6.43;;;;;;;13.94;100.00;99934.09;5061000;28;20197;-79
2023/09/16 04:08:36;;;;;;;6.03;5.53;;;;;;;13.97;100.00;99933.03;5064080;28;20659;-77
2023/09/16 04:11:02;;;;;;;6.27;5.77;;;;;;;13.97;100.00;99933.84;5051853;28;20290;-77
2023/09/16 04:13:27;;;;;;;6.37;5.87;;;;;;;13.93;100.00;99935.00;5061075;28;20638;-77
2023/09/16 04:15:53;;;;;;;6.40;5.63;;;;;;;13.93;100.00;99931.59;5059638;28;20232;-77
2023/09/16 04:18:18;;;;;;;7.43;6.73;;;;;;;13.94;100.00;99933.25;5065247;28;20209;-78
2023/09/16 04:20:56;;;;;;;6.43;5.83;;;;;;;13.88;100.00;99929.34;5050357;28;20315;-77
2023/09/16 04:23:22;;;;;;;6.63;6.13;;;;;;;13.79;100.00;99919.66;5049949;28;20208;-77
2023/09/16 04:25:56;;;;;;;6.90;6.20;;;;;;;13.75;100.00;99925.97;5066426;28;20177;-78
2023/09/16 04:28:23;;;;;;;6.53;5.93;;;;;;;13.88;100.00;99931.94;5061269;28;20187;-78
2023/09/16 04:30:49;;;;;;;6.43;5.83;;;;;;;13.69;100.00;99933.25;5042591;28;20217;-78
2023/09/16 04:33:18;;;;;;;6.13;5.60;;;;;;;13.71;100.00;99920.19;5041034;28;20745;-77
2023/09/16 04:35:49;;;;;;;6.77;6.07;;;;;;;13.67;100.00;99922.16;5066585;28;20165;-77
2023/09/16 04:38:15;;;;;;;7.10;5.90;;;;;;;13.68;100.00;99930.75;5062861;28;20242;-78
2023/09/16 04:40:42;;;;;;;5.97;5.47;;;;;;;13.54;100.00;99927.38;5048041;28;20732;-78
2023/09/16 04:43:08;;;;;;;6.17;5.67;;;;;;;13.62;100.00;99924.25;5057722;28;20653;-78
2023/09/16 04:45:33;;;;;;;6.30;5.77;;;;;;;13.65;100.00;99920.63;5031439;28;20182;-80
2023/09/16 04:48:00;;;;;;;7.67;5.90;;;;;;;13.60;100.00;99923.53;5044804;28;20240;-79
2023/09/16 04:50:28;;;;;;;6.83;6.20;;;;;;;13.42;100.00;99915.31;5026886;28;20228;-77
2023/09/16 04:52:53;;;;;;;6.50;5.90;;;;;;;13.55;100.00;99915.28;5044181;28;20257;-78
2023/09/16 04:55:20;;;;;;;6.40;5.83;;;;;;;13.57;100.00;99913.41;5043928;28;20667;-78
2023/09/16 04:57:46;;;;;;;7.27;6.67;;;;;;;13.62;100.00;99913.06;5065246;28;20184;-77
2023/09/16 05:00:12;;;;;;;6.53;5.97;;;;;;;13.62;100.00;99915.66;5059004;28;20168;-77
2023/09/16 05:02:37;;;;;;;6.23;5.73;;;;;;;13.62;100.00;99908.75;5034890;28;20200;-80
2023/09/16 05:05:02;;;;;;;6.57;6.07;;;;;;;13.44;100.00;99904.88;5050226;28;20184;-77
2023/09/16 05:07:28;;;;;;;6.63;5.87;;;;;;;13.51;100.00;99908.69;5050775;28;20192;-77
2023/09/16 05:09:54;;;;;;;6.67;6.07;;;;;;;13.56;100.00;99910.00;5050333;28;20177;-78
2023/09/16 05:12:19;;;;;;;6.83;5.47;;;;;;;13.53;100.00;99906.78;5041164;28;20347;-79
2023/09/16 05:14:46;;;;;;;7.00;6.40;;;;;;;13.63;100.00;99909.56;5051568;28;20335;-78
2023/09/16 05:17:11;;;;;;;6.50;5.70;;;;;;;13.61;100.00;99906.28;5038298;28;20189;-79
2023/09/16 05:19:36;;;;;;;6.57;6.00;;;;;;;13.69;100.00;99909.13;5050719;28;20191;-82
2023/09/16 05:22:03;;;;;;;6.23;5.73;;;;;;;13.61;100.00;99908.88;5022903;28;20593;-80
2023/09/16 05:24:31;;;;;;;7.00;6.20;;;;;;;13.74;100.00;99911.41;5044757;28;20485;-79
2023/09/16 05:26:56;;;;;;;7.07;6.37;;;;;;;13.74;100.00;99917.38;5051893;28;20280;-80
2023/09/16 05:29:22;;;;;;;7.33;5.70;;;;;;;13.81;100.00;99910.03;5051345;28;20692;-79
2023/09/16 05:31:48;;;;;;;6.10;5.60;;;;;;;13.74;100.00;99911.41;5043059;28;20220;-80
2023/09/16 05:34:13;;;;;;;5.90;5.40;;;;;;;13.69;100.00;99922.91;5064514;28;20229;-79
2023/09/16 05:36:39;;;;;;;6.87;6.00;;;;;;;13.75;100.00;99919.03;5070249;28;20559;-79
2023/09/16 05:39:04;;;;;;;8.97;6.33;;;;;;;13.90;100.00;99916.31;5054454;28;20189;-79
2023/09/16 05:41:29;;;;;;;6.47;5.97;;;;;;;13.97;100.00;99914.94;5044487;28;20229;-79
2023/09/16 05:43:55;;;;;;;7.60;5.37;;;;;;;14.11;100.00;99911.34;5039958;28;20190;-79
2023/09/16 05:46:21;;;;;;;5.80;5.30;;;;;;;14.20;100.00;99908.91;5031939;28;20185;-80
2023/09/16 05:48:46;;;;;;;5.80;5.30;;;;;;;14.32;100.00;99908.97;5044042;28;20182;-80
2023/09/16 05:51:11;;;;;;;6.10;5.60;;;;;;;14.40;100.00;99909.22;5056353;28;20225;-80
2023/09/16 05:53:37;;;;;;;5.60;4.90;;;;;;;14.38;100.00;99905.91;5042862;28;20592;-83
2023/09/16 05:56:04;;;;;;;6.53;5.57;;;;;;;14.52;100.00;99907.47;5051258;28;20196;-80
2023/09/16 05:58:30;;;;;;;8.10;5.83;;;;;;;14.63;100.00;99914.47;5039857;28;20180;-79
2023/09/16 06:00:56;;;;;;;5.90;5.40;;;;;;;14.64;100.00;99905.75;5024556;28;20233;-79
2023/09/16 06:03:22;;;;;;;7.00;5.37;;;;;;;14.60;100.00;99907.75;5042668;28;20732;-79
2023/09/16 06:05:47;;;;;;;6.20;5.70;;;;;;;14.69;100.00;99906.25;5050143;28;20197;-79
2023/09/16 06:08:14;;;;;;;6.33;5.73;;;;;;;14.94;100.00;99907.81;5039138;28;20185;-79
2023/09/16 06:10:40;;;;;;;5.57;5.07;;;;;;;15.19;100.00;99899.94;5042330;28;20644;-80
2023/09/16 06:13:05;;;;;;;7.90;5.60;;;;;;;15.33;100.00;99907.47;5049932;28;20177;-80
2023/09/16 06:15:30;;;;;;;8.70;5.60;;;;;;;15.50;100.00;99911.31;5049644;28;20169;-81
2023/09/16 06:17:55;;;;;;;5.67;5.17;;;;;;;15.64;100.00;99908.50;5049526;28;20185;-80
2023/09/16 06:20:21;;;;;;;6.83;5.13;;;;;;;15.75;100.00;99907.66;5044921;28;20265;-78
2023/09/16 06:22:46;;;;;;;5.60;5.13;;;;;;;15.94;100.00;99914.00;5052937;28;20213;-78
2023/09/16 06:25:11;;;;;;;5.73;5.20;;;;;;;16.10;100.00;99903.16;5046765;28;20185;-79
2023/09/16 06:27:37;;;;;;;6.20;5.30;;;;;;;16.27;100.00;99912.19;5072903;28;20322;-81
2023/09/16 06:30:03;;;;;;;5.93;4.97;;;;;;;16.41;100.00;99914.50;5054603;28;20194;-80
2023/09/16 06:32:28;;;;;;;8.03;4.90;;;;;;;16.58;100.00;99920.06;5054676;28;20212;-79
2023/09/16 06:34:53;;;;;;;5.63;5.13;;;;;;;16.79;100.00;99920.03;5041836;28;20587;-79
2023/09/16 06:37:19;;;;;;;7.13;5.70;;;;;;;17.16;100.00;99922.16;5050783;28;20186;-80
2023/09/16 06:39:46;;;;;;;5.17;4.70;;;;;;;17.93;100.00;99916.47;5053253;28;20192;-77
2023/09/16 06:42:11;;;;;;;5.17;4.70;;;;;;;18.77;100.00;99912.44;5043982;28;20221;-78
2023/09/16 06:44:37;;;;;;;4.40;4.10;;;;;;;19.66;100.00;99911.94;5052571;28;20732;-78
2023/09/16 06:47:02;;;;;;;6.40;4.93;;;;;;;21.49;100.00;99913.97;5064744;28;20181;-78
2023/09/16 06:49:27;;;;;;;4.93;4.20;;;;;;;23.60;100.00;99908.00;5041944;28;20188;-79
2023/09/16 06:51:53;;;;;;;3.60;3.30;;;;;;;24.58;91.25;99906.38;5044822;28;20220;-79
2023/09/16 06:54:18;;;;;;;5.13;3.90;;;;;;;26.04;77.98;99921.47;5058012;28;20237;-79
2023/09/16 06:56:43;;;;;;;3.75;3.20;;;;;;;26.79;66.99;99921.03;5060524;28;20656;-79
2023/09/16 06:59:09;;;;;;;3.90;3.55;;;;;;;26.21;69.13;99921.25;5070177;28;20184;-78
2023/09/16 07:01:34;;;;;;;3.20;2.88;;;;;;;26.23;68.70;99920.06;5051701;28;20224;-78
2023/09/16 07:04:00;;;;;;;5.32;3.10;;;;;;;24.79;79.66;99915.41;5072814;28;20189;-79
2023/09/16 07:06:25;;;;;;;4.97;3.33;;;;;;;25.05;79.89;99919.41;5072091;28;20212;-79
2023/09/16 07:08:51;;;;;;;3.60;3.30;;;;;;;25.81;70.81;99924.31;5058438;28;20271;-79
2023/09/16 07:11:17;;;;;;;3.35;3.13;;;;;;;25.72;72.98;99926.25;5061169;28;20228;-78
2023/09/16 07:13:43;;;;;;;3.35;3.08;;;;;;;26.44;65.99;99931.56;5066546;28;20177;-78
2023/09/16 07:16:11;;;;;;;3.22;2.92;;;;;;;25.49;73.30;99921.16;5063373;28;20180;-78
2023/09/16 07:18:36;;;;;;;5.03;3.22;;;;;;;25.58;74.16;99927.13;5067013;28;20270;-77
2023/09/16 07:21:01;;;;;;;5.35;3.25;;;;;;;25.91;70.56;99926.63;5041403;28;20383;-78
2023/09/16 07:23:27;;;;;;;7.38;3.15;;;;;;;27.12;62.44;99923.03;5049527;28;20346;-78
2023/09/16 07:25:58;;;;;;;3.33;2.97;;;;;;;27.23;59.82;99921.66;5051545;28;20181;-77
2023/09/16 07:28:25;;;;;;;4.90;3.35;;;;;;;26.83;61.02;99926.75;5052829;28;20514;-76
2023/09/16 07:30:50;;;;;;;3.03;2.65;;;;;;;26.93;60.92;99929.88;5026814;28;20244;-79
2023/09/16 07:33:16;;;;;;;3.72;3.42;;;;;;;26.95;59.91;99924.38;5048828;28;20177;-79
2023/09/16 07:35:41;;;;;;;3.22;2.90;;;;;;;27.59;59.58;99925.88;5053037;28;20586;-79
2023/09/16 07:38:08;;;;;;;3.65;3.17;;;;;;;27.61;59.30;99925.66;5043054;28;20185;-82
2023/09/16 07:40:35;;;;;;;3.35;3.15;;;;;;;28.45;53.03;99929.56;5053319;28;20224;-74
2023/09/16 07:43:01;;;;;;;3.78;3.28;;;;;;;28.28;52.72;99929.22;5061033;28;20208;-76
2023/09/16 07:45:26;;;;;;;3.92;3.10;;;;;;;28.02;52.84;99930.81;5053201;28;20181;-75
2023/09/16 07:47:52;;;;;;;4.53;3.63;;;;;;;28.07;55.38;99926.75;5052875;28;20184;-77
2023/09/16 07:50:18;;;;;;;2.92;2.72;;;;;;;28.45;52.71;99931.41;5043352;28;20264;-82
2023/09/16 07:52:43;;;;;;;3.42;3.00;;;;;;;27.81;55.77;99939.72;5045905;28;20273;-74
2023/09/16 07:55:09;;;;;;;3.83;3.00;;;;;;;26.53;63.49;99946.25;5057040;28;20204;-78
2023/09/16 07:57:34;;;;;;;3.17;2.97;;;;;;;26.73;62.63;99951.66;5064728;28;20246;-75
2023/09/16 07:59:59;;;;;;;5.68;2.95;;;;;;;27.13;62.12;99955.53;5052796;28;20212;-75
2023/09/16 08:02:25;;;;;;;6.32;3.28;;;;;;;28.66;53.24;99959.47;5032072;28;20301;-75
2023/09/16 08:04:50;;;;;;;4.50;3.45;;;;;;;28.40;50.92;99960.31;5057270;28;20185;-73
2023/09/16 08:07:15;;;;;;;3.10;2.83;;;;;;;29.62;48.86;99960.59;5067731;28;20202;-76
2023/09/16 08:09:41;;;;;;;3.55;3.15;;;;;;;30.22;44.45;99963.91;5052291;28;20208;-75
2023/09/16 08:12:06;;;;;;;4.75;3.00;;;;;;;30.64;43.36;99958.00;5048185;28;20762;-72
2023/09/16 08:14:31;;;;;;;3.67;3.33;;;;;;;30.59;43.14;99959.50;5063697;28;20205;-73
2023/09/16 08:16:58;;;;;;;3.78;2.70;;;;;;;29.68;46.27;99958.13;5052288;28;20181;-75
2023/09/16 08:19:24;;;;;;;3.72;3.42;;;;;;;28.05;52.59;99961.34;5052236;28;20204;-72
2023/09/16 08:21:49;;;;;;;6.50;3.50;;;;;;;27.98;55.90;99957.84;5033531;28;20228;-69
2023/09/16 08:24:14;;;;;;;4.43;3.38;;;;;;;28.05;55.37;99963.19;5054692;28;20189;-69
2023/09/16 08:26:40;;;;;;;3.85;3.53;;;;;;;27.33;59.93;99971.47;5052050;28;20272;-69
2023/09/16 08:29:05;;;;;;;4.50;4.10;;;;;;;26.87;61.90;99967.59;5052001;28;20216;-76
2023/09/16 08:31:30;;;;;;;5.57;3.28;;;;;;;26.10;71.60;99976.09;5046710;28;20248;-77
2023/09/16 08:34:00;;;;;;;3.97;3.65;;;;;;;25.87;73.20;99978.09;5051510;28;20181;-72
2023/09/16 08:36:26;;;;;;;7.32;3.58;;;;;;;25.47;77.93;99978.47;5051395;28;20196;-75
2023/09/16 08:38:51;;;;;;;4.20;3.53;;;;;;;26.00;75.74;99978.22;5049109;28;20185;-74
2023/09/16 08:41:27;;;;;;;3.67;3.38;;;;;;;27.04;68.40;99984.75;5055580;28;20600;-75
2023/09/16 08:43:57;;;;;;;4.63;3.22;;;;;;;27.38;64.80;99979.63;5069998;28;20566;-78
2023/09/16 08:46:26;;;;;;;4.65;2.95;;;;;;;29.20;52.65;99983.19;5044817;28;20180;-74
2023/09/16 08:48:55;;;;;;;3.17;2.85;;;;;;;29.12;52.19;99986.88;5070987;28;20181;-70
2023/09/16 08:51:21;;;;;;;4.78;3.60;;;;;;;30.39;45.80;99985.34;5030471;28;20698;-69
2023/09/16 08:53:50;;;;;;;8.32;3.40;;;;;;;31.76;42.96;99982.69;5069872;28;20181;-69
2023/09/16 08:56:16;;;;;;;3.20;3.00;;;;;;;32.91;39.30;99991.25;5063206;28;20694;-73
2023/09/16 08:58:44;;;;;;;3.80;3.40;;;;;;;33.97;35.83;99993.78;5051475;28;20212;-70
2023/09/16 09:01:10;;;;;;;7.80;3.40;;;;;;;34.13;35.49;99998.28;5046759;28;20682;-71
2023/09/16 09:03:36;;;;;;;5.38;3.53;;;;;;;33.08;36.70;99993.16;5058120;28;20197;-75
2023/09/16 09:06:03;;;;;;;6.28;3.25;;;;;;;34.06;36.22;99993.13;5052817;28;20295;-75
2023/09/16 09:08:29;;;;;;;3.92;3.08;;;;;;;33.88;35.60;99998.69;5051144;28;20196;-75
2023/09/16 09:10:55;;;;;;;6.18;3.60;;;;;;;34.17;34.69;99999.41;5041711;28;20239;-77
2023/09/16 09:13:21;;;;;;;3.85;3.38;;;;;;;34.34;34.86;99999.41;5051732;28;20224;-71
2023/09/16 09:15:48;;;;;;;3.38;3.13;;;;;;;35.29;33.19;100001.25;5051466;28;20181;-73
2023/09/16 09:18:18;;;;;;;3.47;3.17;;;;;;;33.76;35.61;99998.72;5051097;28;20274;-74
2023/09/16 09:20:43;;;;;;;3.83;3.47;;;;;;;33.38;36.54;99997.50;5050084;28;20236;-70
2023/09/16 09:23:09;;;;;;;4.25;3.30;;;;;;;32.02;39.51;100000.09;5063313;28;20216;-70
2023/09/16 09:25:36;;;;;;;4.10;3.55;;;;;;;33.48;37.63;100000.38;5056969;28;20194;-71
2023/09/16 09:28:03;;;;;;;6.60;3.85;;;;;;;33.36;36.99;99999.63;5044588;28;20200;-69
2023/09/16 09:30:30;;;;;;;5.15;3.60;;;;;;;33.38;36.78;100001.00;5042675;28;20228;-70
2023/09/16 09:32:57;;;;;;;8.00;3.85;;;;;;;33.42;36.59;100001.31;5062458;28;20221;-74
2023/09/16 09:35:24;;;;;;;6.68;3.75;;;;;;;32.10;40.32;99990.94;5050777;28;20665;-68
2023/09/16 09:37:50;;;;;;;8.85;4.40;;;;;;;33.31;38.19;99992.31;5047567;28;20209;-68
2023/09/16 09:40:15;;;;;;;9.63;3.95;;;;;;;33.46;37.06;99995.25;5045122;28;20216;-65
2023/09/16 09:42:51;;;;;;;7.47;4.00;;;;;;;33.95;36.05;99994.00;5026677;28;20213;-66
2023/09/16 09:45:18;;;;;;;6.03;3.78;;;;;;;34.79;34.74;100003.00;5050467;28;20264;-71
2023/09/16 09:47:45;;;;;;;6.43;3.88;;;;;;;34.61;35.18;100001.44;5050305;28;20189;-71
2023/09/16 09:50:15;;;;;;;6.18;4.45;;;;;;;34.34;35.52;99988.75;5041179;28;20181;-70
2023/09/16 09:52:48;;;;;;;6.28;4.28;;;;;;;32.92;37.51;99986.72;5064197;28;20198;-75
2023/09/16 09:55:17;;;;;;;8.75;3.55;;;;;;;33.84;37.02;99987.69;5043941;28;20182;-82
2023/09/16 09:57:45;;;;;;;6.28;3.80;;;;;;;35.29;34.87;99984.38;5047778;28;20189;-67
2023/09/16 10:00:14;;;;;;;7.38;4.15;;;;;;;35.19;34.75;99983.22;5025880;28;20925;-68
2023/09/16 10:02:40;;;;;;;10.35;4.50;;;;;;;35.83;34.62;99973.69;5047699;28;20198;-68
2023/09/16 10:05:06;;;;;;;5.82;4.50;;;;;;;35.70;34.10;99972.25;5035199;28;20197;-71
2023/09/16 10:07:31;;;;;;;7.65;4.45;;;;;;;36.30;32.76;99974.84;5035411;28;20590;-80
2023/09/16 10:09:57;;;;;;;7.18;3.90;;;;;;;35.61;33.45;99979.09;5041985;28;20207;-72
2023/09/16 10:12:23;;;;;;;4.05;3.67;;;;;;;36.00;32.66;99967.44;5039302;28;20312;-73
2023/09/16 10:14:51;;;;;;;7.35;4.25;;;;;;;34.13;36.01;99968.94;5026355;28;20182;-86
2023/09/16 10:17:16;;;;;;;6.28;4.50;;;;;;;33.79;36.95;99969.72;5030264;28;20224;-70
2023/09/16 10:19:43;;;;;;;7.80;4.50;;;;;;;34.40;36.43;99974.44;5050841;28;20232;-69
2023/09/16 10:22:10;;;;;;;5.47;4.05;;;;;;;35.35;35.36;99962.81;5059227;28;20232;-68
2023/09/16 10:24:36;;;;;;;7.90;5.10;;;;;;;33.50;36.83;99962.81;5038992;28;20548;-70
2023/09/16 10:27:08;;;;;;;4.65;4.25;;;;;;;30.33;47.04;99965.00;5036932;28;20182;-72
2023/09/16 10:29:35;;;;;;;5.22;4.72;;;;;;;29.67;56.04;99959.13;5035795;28;20200;-72
2023/09/16 10:32:00;;;;;;;5.18;4.60;;;;;;;29.32;63.77;99957.69;5050112;28;20966;-72
2023/09/16 10:34:27;;;;;;;5.22;4.75;;;;;;;28.50;69.16;99950.97;5028014;28;20260;-76
2023/09/16 10:36:52;;;;;;;7.00;5.35;;;;;;;26.80;80.03;99959.63;5029373;28;20175;-83
2023/09/16 10:39:19;;;;;;;6.80;5.13;;;;;;;26.68;81.53;99953.22;5025171;28;20657;-72
2023/09/16 10:41:45;;;;;;;7.75;5.15;;;;;;;26.10;88.67;99948.94;5034911;28;20233;-81
2023/09/16 10:44:12;;;;;;;6.38;5.60;;;;;;;26.12;91.09;99952.19;5052982;28;20212;-74
2023/09/16 10:46:38;;;;;;;7.60;7.00;;;;;;;25.35;93.24;99949.09;5052691;28;20188;-76
2023/09/16 10:49:03;;;;;;;7.00;6.22;;;;;;;25.00;95.77;99945.44;5052779;28;20169;-77
2023/09/16 10:51:36;;;;;;;12.23;6.05;;;;;;;24.73;99.21;99945.06;5053451;28;20217;-80
2023/09/16 10:54:12;;;;;;;6.20;5.60;;;;;;;25.10;97.44;99938.88;5051406;28;20313;-74
2023/09/16 10:56:43;;;;;;;6.85;5.72;;;;;;;25.14;97.09;99942.81;5052366;28;20605;-70
2023/09/16 10:59:13;;;;;;;5.90;5.30;;;;;;;25.27;96.67;99938.72;5048712;28;20580;-70
2023/09/16 11:01:53;;;;;;;6.35;5.13;;;;;;;25.45;98.04;99940.94;5054644;28;20647;-74
2023/09/16 11:04:19;;;;;;;6.60;6.00;;;;;;;25.10;98.10;99941.53;5038259;28;20224;-85
2023/09/16 11:06:48;;;;;;;6.15;5.65;;;;;;;25.04;99.99;99938.81;5037002;28;20230;-82
2023/09/16 11:09:15;;;;;;;7.32;6.72;;;;;;;24.98;100.00;99932.44;5027422;28;20197;-80
2023/09/16 11:11:41;;;;;;;7.13;6.13;;;;;;;24.85;100.00;99929.66;5029441;28;20236;-72
2023/09/16 11:14:08;;;;;;;6.88;5.30;;;;;;;24.68;100.00;99926.38;5037284;28;20206;-75
2023/09/16 11:16:49;;;;;;;6.68;6.18;;;;;;;24.42;100.00;99928.41;5032189;28;20529;-73
2023/09/16 11:19:25;;;;;;;8.93;6.28;;;;;;;24.16;100.00;99934.88;5030431;28;20177;-84
2023/09/16 11:21:54;;;;;;;5.95;5.45;;;;;;;24.38;100.00;99927.13;5059549;28;20251;-75
2023/09/16 11:24:19;;;;;;;8.82;6.05;;;;;;;24.59;100.00;99925.63;5044324;28;20181;-76
2023/09/16 11:26:49;;;;;;;8.20;5.72;;;;;;;24.70;100.00;99925.22;5050616;28;20223;-73